Time;durP1;ratioP1;P1;durP2;ratioP2;P2;SDS_P1;SDS_P2;PMS_P1;PMS_P2;Temp;Humidity;BMP_temperature;BMP_pressure;BME280_temperature;BME280_humidity;BME280_pressure;Samples;Min_cycle;Max_cycle;Signal;HPM_P1;HPM_P2
2023/09/12 00:00:07;;;;;;;14.30;7.82;;;;;;;22.49;68.25;99543.03;4926770;28;20517;-87
2023/09/12 00:02:40;;;;;;;13.00;7.57;;;;;;;22.44;68.32;99543.72;4949229;28;20069;-87
2023/09/12 00:05:07;;;;;;;14.45;7.38;;;;;;;22.44;68.00;99541.03;4941604;28;20118;-87
2023/09/12 00:07:35;;;;;;;11.57;7.30;;;;;;;22.43;68.12;99533.94;4943010;28;20065;-87
2023/09/12 00:10:02;;;;;;;15.13;7.60;;;;;;;22.39;68.17;99540.00;4910615;28;20125;-87
2023/09/12 00:12:29;;;;;;;13.43;8.02;;;;;;;22.38;67.99;99532.94;4945510;28;20054;-87
2023/09/12 00:14:56;;;;;;;14.90;7.88;;;;;;;22.40;68.05;99536.25;4949189;28;20106;-88
2023/09/12 00:17:22;;;;;;;13.23;7.60;;;;;;;22.39;68.05;99531.88;4942825;28;20043;-88
2023/09/12 00:19:49;;;;;;;15.85;7.93;;;;;;;22.37;67.87;99539.41;4943454;28;20051;-88
2023/09/12 00:22:16;;;;;;;11.93;7.20;;;;;;;22.33;68.09;99542.53;4921602;28;20098;-88
2023/09/12 00:24:43;;;;;;;16.42;8.75;;;;;;;22.29;68.29;99535.94;4955420;28;20062;-87
2023/09/12 00:27:10;;;;;;;12.13;7.13;;;;;;;22.28;68.18;99539.66;4938605;28;20043;-88
2023/09/12 00:29:38;;;;;;;13.60;8.13;;;;;;;22.26;67.89;99530.97;4928171;28;20111;-88
2023/09/12 00:32:05;;;;;;;12.93;7.40;;;;;;;22.25;68.38;99529.28;4942862;28;20054;-88
2023/09/12 00:34:31;;;;;;;13.57;7.00;;;;;;;22.22;68.17;99527.03;4942340;28;20050;-88
2023/09/12 00:36:58;;;;;;;11.20;7.65;;;;;;;22.25;67.90;99526.59;4931067;28;20103;-87
2023/09/12 00:39:25;;;;;;;20.80;8.32;;;;;;;22.22;68.00;99526.19;4958311;28;20145;-88
2023/09/12 00:41:52;;;;;;;12.02;7.72;;;;;;;22.23;67.86;99527.84;4919035;28;20054;-88
2023/09/12 00:44:19;;;;;;;13.13;7.07;;;;;;;22.20;67.62;99528.28;4967002;28;20102;-88
2023/09/12 00:46:46;;;;;;;14.45;7.65;;;;;;;22.21;67.40;99528.09;4933299;28;20044;-88
2023/09/12 00:49:13;;;;;;;12.98;8.05;;;;;;;22.18;67.12;99525.75;4932123;28;20051;-87
2023/09/12 00:51:40;;;;;;;12.02;8.43;;;;;;;22.19;67.08;99526.63;4969366;28;20047;-88
2023/09/12 00:54:07;;;;;;;13.73;7.95;;;;;;;22.18;67.11;99519.53;4939474;28;20062;-88
2023/09/12 00:56:34;;;;;;;13.20;7.30;;;;;;;22.16;67.12;99518.91;4924761;28;20043;-88
2023/09/12 00:59:02;;;;;;;12.75;7.25;;;;;;;22.15;67.16;99517.28;4943774;28;20462;-88
2023/09/12 01:01:28;;;;;;;14.23;7.28;;;;;;;22.14;66.83;99516.44;4949878;28;20452;-88
2023/09/12 01:03:55;;;;;;;12.80;7.43;;;;;;;22.09;67.08;99517.09;4943242;28;20039;-88
2023/09/12 01:06:26;;;;;;;13.40;7.82;;;;;;;22.09;66.55;99525.22;4911698;28;20039;-88
2023/09/12 01:08:53;;;;;;;11.48;7.13;;;;;;;22.05;66.59;99523.97;4931241;28;20138;-88
2023/09/12 01:11:20;;;;;;;14.32;7.13;;;;;;;22.04;66.66;99524.22;4971075;28;20047;-88
2023/09/12 01:13:47;;;;;;;14.88;6.88;;;;;;;21.98;66.58;99516.97;4899399;28;20043;-88
2023/09/12 01:16:13;;;;;;;19.17;7.97;;;;;;;21.96;66.95;99521.78;4938037;28;20133;-88
2023/09/12 01:18:42;;;;;;;14.63;8.02;;;;;;;21.96;66.91;99525.31;4935429;28;20073;-88
2023/09/12 01:21:21;;;;;;;16.98;8.07;;;;;;;21.88;66.59;99523.69;4932505;28;20070;-88
2023/09/12 01:23:51;;;;;;;16.35;7.13;;;;;;;21.94;66.77;99530.09;4930150;28;20407;-88
2023/09/12 01:26:30;;;;;;;13.25;7.55;;;;;;;21.85;66.59;99534.09;4946102;28;20057;-88
2023/09/12 01:28:58;;;;;;;9.63;7.05;;;;;;;21.89;66.61;99522.63;4929242;28;20053;-88
2023/09/12 01:31:25;;;;;;;17.73;7.88;;;;;;;21.87;66.62;99532.81;4902356;28;20047;-88
2023/09/12 01:33:57;;;;;;;10.25;6.85;;;;;;;21.83;66.58;99531.63;4929097;28;20047;-88
2023/09/12 01:36:24;;;;;;;20.02;8.02;;;;;;;21.82;66.44;99529.94;4972075;28;20039;-88
2023/09/12 01:38:51;;;;;;;20.85;7.35;;;;;;;21.83;66.43;99528.06;4953301;28;20055;-88
2023/09/12 01:41:18;;;;;;;9.98;7.38;;;;;;;21.82;66.66;99529.94;4932113;28;20547;-87
2023/09/12 01:43:47;;;;;;;11.57;7.20;;;;;;;21.79;66.61;99530.38;4936127;28;20046;-87
2023/09/12 01:46:15;;;;;;;14.38;7.75;;;;;;;21.78;66.33;99526.03;4909824;28;20043;-88
2023/09/12 01:48:43;;;;;;;13.50;7.82;;;;;;;21.79;66.28;99527.69;4963648;28;20055;-87
2023/09/12 01:51:11;;;;;;;15.23;7.55;;;;;;;21.78;66.22;99530.59;4940138;28;20936;-88
2023/09/12 01:53:38;;;;;;;11.88;7.32;;;;;;;21.72;66.24;99521.47;4942922;28;20101;-88
2023/09/12 01:56:05;;;;;;;14.48;7.78;;;;;;;21.73;66.18;99533.09;4960338;28;20126;-88
2023/09/12 01:58:33;;;;;;;14.27;7.68;;;;;;;21.74;66.34;99529.38;4937518;28;20048;-88
2023/09/12 02:01:00;;;;;;;9.15;6.78;;;;;;;21.70;66.45;99525.44;4943052;28;20054;-88
2023/09/12 02:03:27;;;;;;;15.27;7.60;;;;;;;21.68;66.46;99525.69;4944795;28;20186;-88
2023/09/12 02:05:54;;;;;;;14.90;6.85;;;;;;;21.65;66.47;99517.97;4939736;28;20105;-87
2023/09/12 02:08:20;;;;;;;13.43;7.28;;;;;;;21.65;66.31;99515.28;4945493;28;20122;-87
2023/09/12 02:10:47;;;;;;;11.40;7.20;;;;;;;21.60;66.26;99515.09;4919089;28;20047;-87
2023/09/12 02:13:14;;;;;;;9.88;6.85;;;;;;;21.58;66.74;99518.03;4936780;28;20507;-88
2023/09/12 02:15:41;;;;;;;12.35;7.50;;;;;;;21.54;66.50;99516.78;4944856;28;20039;-88
2023/09/12 02:18:08;;;;;;;10.38;6.60;;;;;;;21.55;66.49;99526.56;4901287;28;20071;-88
2023/09/12 02:20:38;;;;;;;9.70;7.15;;;;;;;21.53;66.50;99523.25;4951483;28;21005;-87
2023/09/12 02:23:05;;;;;;;13.18;7.55;;;;;;;21.50;66.95;99510.16;4914010;28;20046;-88
2023/09/12 02:25:32;;;;;;;14.38;7.82;;;;;;;21.51;66.63;99509.13;4964887;28;20429;-88
2023/09/12 02:27:59;;;;;;;12.60;7.28;;;;;;;21.45;66.51;99518.09;4942962;28;20043;-88
2023/09/12 02:30:25;;;;;;;13.77;7.30;;;;;;;21.44;66.62;99511.00;4944165;28;20057;-88
2023/09/12 02:32:52;;;;;;;16.70;7.95;;;;;;;21.41;66.71;99512.28;4947029;28;20809;-88
2023/09/12 02:35:19;;;;;;;12.73;7.03;;;;;;;21.40;66.72;99509.81;4930694;28;20047;-87
2023/09/12 02:37:46;;;;;;;16.92;7.40;;;;;;;21.40;66.54;99507.09;4930585;28;20051;-87
2023/09/12 02:40:14;;;;;;;10.27;7.25;;;;;;;21.41;66.47;99506.88;4951134;28;20126;-88
2023/09/12 02:42:41;;;;;;;10.65;7.07;;;;;;;21.37;66.81;99505.63;4966266;28;20098;-88
2023/09/12 02:45:08;;;;;;;14.80;7.32;;;;;;;21.39;66.37;99508.13;4930807;28;20429;-88
2023/09/12 02:47:35;;;;;;;12.07;7.22;;;;;;;21.38;66.51;99507.31;4953570;28;20051;-88
2023/09/12 02:50:02;;;;;;;12.07;6.55;;;;;;;21.34;66.48;99500.63;4911805;28;20138;-88
2023/09/12 02:52:29;;;;;;;10.95;7.32;;;;;;;21.32;66.49;99500.03;4942927;28;20410;-88
2023/09/12 02:54:56;;;;;;;13.40;7.35;;;;;;;21.29;66.28;99495.03;4967882;28;20059;-88
2023/09/12 02:57:22;;;;;;;9.50;6.47;;;;;;;21.28;66.25;99500.66;4948951;28;20046;-88
2023/09/12 02:59:49;;;;;;;11.20;6.15;;;;;;;21.26;66.35;99490.06;4944039;28;20467;-88
2023/09/12 03:02:16;;;;;;;14.13;7.18;;;;;;;21.26;66.25;99492.78;4958337;28;20094;-88
2023/09/12 03:04:43;;;;;;;15.07;7.63;;;;;;;21.24;66.42;99497.56;4928788;28;20102;-88
2023/09/12 03:07:10;;;;;;;14.80;6.93;;;;;;;21.20;66.36;99491.75;4962981;28;20103;-88
2023/09/12 03:09:38;;;;;;;13.05;6.75;;;;;;;21.20;66.32;99493.63;4960488;28;20058;-88
2023/09/12 03:12:05;;;;;;;10.98;5.95;;;;;;;21.20;66.50;99493.63;4951393;28;20858;-88
2023/09/12 03:14:32;;;;;;;11.23;7.35;;;;;;;21.16;66.28;99495.09;4930039;28;20554;-88
2023/09/12 03:16:59;;;;;;;13.57;6.72;;;;;;;21.14;66.36;99491.78;4943640;28;20086;-88
2023/09/12 03:19:26;;;;;;;11.55;7.38;;;;;;;21.14;66.39;99489.94;4925478;28;20051;-87
2023/09/12 03:21:53;;;;;;;12.18;6.97;;;;;;;21.14;66.32;99494.47;4950701;28;20166;-88
2023/09/12 03:24:22;;;;;;;10.60;6.70;;;;;;;21.11;66.31;99489.50;4905494;28;20458;-87
2023/09/12 03:26:49;;;;;;;10.50;7.45;;;;;;;21.10;66.03;99485.16;4944058;28;20125;-87
2023/09/12 03:29:16;;;;;;;13.13;7.10;;;;;;;21.08;66.27;99495.34;4971806;28;20047;-88
2023/09/12 03:31:44;;;;;;;11.65;7.03;;;;;;;21.06;66.20;99486.63;4947972;28;20043;-88
2023/09/12 03:34:11;;;;;;;12.77;7.10;;;;;;;21.08;66.09;99485.34;4949310;28;20055;-88
2023/09/12 03:36:37;;;;;;;14.40;7.72;;;;;;;21.07;66.30;99488.28;4911695;28;20050;-88
2023/09/12 03:39:08;;;;;;;11.05;7.07;;;;;;;21.03;66.09;99491.38;4936759;28;20047;-88
2023/09/12 03:41:35;;;;;;;11.13;6.63;;;;;;;21.01;65.99;99487.25;4961796;28;20126;-88
2023/09/12 03:44:02;;;;;;;13.50;6.95;;;;;;;20.99;66.23;99487.47;4958093;28;20130;-88
2023/09/12 03:46:29;;;;;;;10.73;7.15;;;;;;;20.95;66.49;99485.41;4964735;28;20046;-88
2023/09/12 03:48:56;;;;;;;12.23;6.75;;;;;;;20.97;66.83;99486.03;4953186;28;20051;-89
2023/09/12 03:51:23;;;;;;;10.82;7.15;;;;;;;20.95;66.67;99491.63;4921539;28;20065;-89
2023/09/12 03:53:50;;;;;;;12.60;7.97;;;;;;;20.94;66.63;99483.72;4928282;28;20051;-88
2023/09/12 03:56:19;;;;;;;13.95;7.82;;;;;;;20.95;66.54;99482.72;4946493;28;20054;-88
2023/09/12 03:58:46;;;;;;;15.88;7.03;;;;;;;20.96;66.79;99487.91;4943791;28;20046;-88
2023/09/12 04:01:14;;;;;;;10.52;7.43;;;;;;;20.95;66.90;99490.81;4931055;28;20542;-88
2023/09/12 04:03:44;;;;;;;13.20;7.10;;;;;;;20.94;66.88;99481.03;4918004;28;20110;-88
2023/09/12 04:06:11;;;;;;;10.20;6.93;;;;;;;20.92;67.08;99477.75;4925204;28;20666;-88
2023/09/12 04:08:38;;;;;;;11.48;7.35;;;;;;;20.93;67.58;99479.38;4942744;28;20057;-89
2023/09/12 04:11:07;;;;;;;11.73;7.22;;;;;;;20.91;66.96;99481.47;4934226;28;20051;-88
2023/09/12 04:13:34;;;;;;;10.90;7.03;;;;;;;20.90;67.44;99483.34;4926343;28;20053;-89
2023/09/12 04:16:01;;;;;;;14.43;7.20;;;;;;;20.91;67.13;99476.88;4916839;28;20057;-87
2023/09/12 04:18:28;;;;;;;13.00;7.05;;;;;;;20.93;67.27;99482.91;4929514;28;20667;-86
2023/09/12 04:20:57;;;;;;;15.40;7.78;;;;;;;20.92;67.27;99483.13;4963680;28;20121;-87
2023/09/12 04:23:26;;;;;;;12.73;7.35;;;;;;;20.90;67.45;99488.72;4926005;28;20082;-83
2023/09/12 04:25:53;;;;;;;16.95;8.43;;;;;;;20.91;67.56;99482.28;4931702;28;20070;-83
2023/09/12 04:28:20;;;;;;;13.50;7.15;;;;;;;20.89;67.38;99484.38;4960802;28;20050;-83
2023/09/12 04:30:47;;;;;;;11.05;7.25;;;;;;;20.88;67.10;99480.00;4960714;28;20043;-83
2023/09/12 04:33:14;;;;;;;11.85;7.28;;;;;;;20.90;67.30;99483.34;4931895;28;20050;-83
2023/09/12 04:35:41;;;;;;;10.48;6.78;;;;;;;20.86;66.93;99479.38;4970204;28;20054;-83
2023/09/12 04:38:09;;;;;;;17.48;8.05;;;;;;;20.87;66.56;99481.06;4950257;28;20049;-83
2023/09/12 04:40:36;;;;;;;16.92;7.70;;;;;;;20.84;66.41;99480.63;4956445;28;20047;-83
2023/09/12 04:43:03;;;;;;;12.52;7.45;;;;;;;20.86;66.60;99492.06;4942891;28;20047;-79
2023/09/12 04:45:33;;;;;;;13.93;6.55;;;;;;;20.84;67.10;99483.34;4958754;28;20075;-79
2023/09/12 04:48:00;;;;;;;12.07;6.82;;;;;;;20.87;67.24;99488.34;4928523;28;20059;-79
2023/09/12 04:50:27;;;;;;;11.05;6.68;;;;;;;20.87;67.45;99485.63;4935266;28;20051;-78
2023/09/12 04:52:53;;;;;;;13.43;6.95;;;;;;;20.83;67.17;99487.09;4936452;28;20792;-78
2023/09/12 04:55:20;;;;;;;10.63;6.53;;;;;;;20.84;67.56;99486.88;4925843;28;20051;-78
2023/09/12 04:57:48;;;;;;;10.18;6.68;;;;;;;20.85;67.55;99498.50;4934510;28;20043;-78
2023/09/12 05:00:15;;;;;;;16.73;7.55;;;;;;;20.84;67.20;99497.69;4953682;28;20054;-79
2023/09/12 05:02:42;;;;;;;13.68;6.65;;;;;;;20.81;67.08;99495.38;4970936;28;20122;-79
2023/09/12 05:05:09;;;;;;;12.88;7.05;;;;;;;20.84;66.83;99505.78;4939580;28;20073;-79
2023/09/12 05:07:37;;;;;;;12.55;6.95;;;;;;;20.83;66.75;99504.09;4954069;28;20427;-79
2023/09/12 05:10:04;;;;;;;10.68;7.38;;;;;;;20.83;67.01;99501.41;4941269;28;20154;-79
2023/09/12 05:12:30;;;;;;;14.52;7.97;;;;;;;20.83;66.74;99501.41;4957883;28;20050;-80
2023/09/12 05:14:57;;;;;;;16.58;7.15;;;;;;;20.80;66.92;99499.13;4951990;28;20057;-78
2023/09/12 05:17:24;;;;;;;12.52;7.85;;;;;;;20.79;66.46;99498.31;4941604;28;20046;-79
2023/09/12 05:19:51;;;;;;;15.43;7.07;;;;;;;20.80;66.30;99491.88;4930343;28;20057;-78
2023/09/12 05:22:19;;;;;;;12.70;7.03;;;;;;;20.84;66.21;99495.00;4929506;28;20529;-78
2023/09/12 05:24:46;;;;;;;14.50;7.35;;;;;;;20.83;66.14;99482.50;4951279;28;20573;-78
2023/09/12 05:27:13;;;;;;;13.48;6.50;;;;;;;20.81;66.04;99490.00;4907244;28;20073;-79
2023/09/12 05:29:40;;;;;;;9.82;6.88;;;;;;;20.82;66.25;99486.28;4952840;28;20059;-78
2023/09/12 05:32:07;;;;;;;13.13;6.72;;;;;;;20.83;66.01;99487.09;4935733;28;20058;-78
2023/09/12 05:34:34;;;;;;;13.52;7.00;;;;;;;20.83;65.88;99493.31;4918673;28;20147;-79
2023/09/12 05:37:01;;;;;;;13.70;6.63;;;;;;;20.80;65.78;99497.25;4923853;28;20549;-78
2023/09/12 05:39:28;;;;;;;16.88;7.43;;;;;;;20.83;65.92;99495.19;4957327;28;20070;-78
2023/09/12 05:41:54;;;;;;;13.32;7.07;;;;;;;20.81;66.07;99498.09;4952565;28;20073;-78
2023/09/12 05:44:22;;;;;;;17.58;7.75;;;;;;;20.80;66.04;99497.25;4935771;28;20038;-79
2023/09/12 05:46:48;;;;;;;11.60;7.72;;;;;;;20.81;65.92;99498.94;4953094;28;20746;-79
2023/09/12 05:49:16;;;;;;;18.40;7.35;;;;;;;20.84;65.64;99502.22;4939815;28;20045;-82
2023/09/12 05:51:43;;;;;;;15.60;6.97;;;;;;;20.87;66.14;99501.84;4926859;28;20047;-83
2023/09/12 05:54:13;;;;;;;14.68;7.78;;;;;;;20.87;66.42;99504.53;4949943;28;20394;-83
2023/09/12 05:56:40;;;;;;;13.95;7.53;;;;;;;20.83;66.27;99493.31;4943899;28;20049;-84
2023/09/12 05:59:06;;;;;;;17.23;7.18;;;;;;;20.89;65.98;99510.53;4939231;28;20039;-83
2023/09/12 06:01:34;;;;;;;17.15;7.50;;;;;;;20.84;65.90;99497.69;4952957;28;20462;-83
2023/09/12 06:04:00;;;;;;;15.68;7.38;;;;;;;20.89;65.83;99508.69;4928819;28;20055;-83
2023/09/12 06:06:28;;;;;;;14.98;7.47;;;;;;;20.91;66.38;99509.28;4930100;28;20135;-83
2023/09/12 06:08:55;;;;;;;9.88;7.18;;;;;;;20.93;66.62;99509.91;4949823;28;20039;-84
2023/09/12 06:11:25;;;;;;;11.65;7.53;;;;;;;20.95;66.39;99515.91;4935208;28;20050;-84
2023/09/12 06:13:52;;;;;;;13.90;7.85;;;;;;;20.98;66.53;99510.09;4942600;28;20051;-84
2023/09/12 06:16:19;;;;;;;17.80;7.70;;;;;;;20.99;67.05;99514.47;4906324;28;20049;-82
2023/09/12 06:18:48;;;;;;;19.02;8.30;;;;;;;21.02;66.89;99524.00;4949107;28;20046;-82
2023/09/12 06:21:15;;;;;;;19.02;8.73;;;;;;;21.05;66.65;99534.38;4927335;28;20047;-83
2023/09/12 06:23:44;;;;;;;18.13;7.85;;;;;;;21.07;66.96;99526.91;4927241;28;20059;-84
2023/09/12 06:26:11;;;;;;;15.68;8.02;;;;;;;21.09;66.65;99526.69;4929285;28;20043;-85
2023/09/12 06:28:38;;;;;;;15.55;7.10;;;;;;;21.10;66.13;99531.06;4943470;28;20051;-84
2023/09/12 06:31:08;;;;;;;16.75;7.43;;;;;;;21.11;66.10;99532.69;4949585;28;20133;-84
2023/09/12 06:33:35;;;;;;;15.75;7.82;;;;;;;21.10;66.43;99531.06;4941956;28;20134;-84
2023/09/12 06:36:02;;;;;;;16.05;7.57;;;;;;;21.12;66.55;99537.91;4937758;28;20066;-84
2023/09/12 06:38:29;;;;;;;16.23;7.88;;;;;;;21.13;66.33;99531.44;4927126;28;20713;-84
2023/09/12 06:40:56;;;;;;;14.75;8.07;;;;;;;21.13;65.85;99536.84;4944098;28;20086;-83
2023/09/12 06:43:23;;;;;;;14.77;7.75;;;;;;;21.13;65.94;99536.84;4953823;28;20047;-84
2023/09/12 06:45:50;;;;;;;14.02;8.23;;;;;;;21.17;66.27;99539.97;4947070;28;20046;-84
2023/09/12 06:48:17;;;;;;;15.90;8.15;;;;;;;21.17;66.25;99538.09;4944340;28;20379;-84
2023/09/12 06:50:44;;;;;;;12.82;7.82;;;;;;;21.20;66.63;99542.25;4939299;28;20099;-84
2023/09/12 06:53:16;;;;;;;18.83;8.45;;;;;;;21.22;66.74;99551.78;4942676;28;20411;-84
2023/09/12 06:55:43;;;;;;;16.15;8.23;;;;;;;21.25;66.63;99539.72;4946833;28;20043;-84
2023/09/12 06:58:11;;;;;;;17.35;8.13;;;;;;;21.27;67.02;99536.81;4916384;28;21111;-84
2023/09/12 07:00:37;;;;;;;16.63;8.32;;;;;;;21.26;66.66;99544.09;4942187;28;20107;-83
2023/09/12 07:03:04;;;;;;;17.08;8.23;;;;;;;21.29;66.82;99546.34;4930035;28;20053;-84
2023/09/12 07:05:31;;;;;;;14.40;8.45;;;;;;;21.29;67.04;99548.22;4958986;28;20058;-83
2023/09/12 07:07:58;;;;;;;16.08;7.65;;;;;;;21.30;66.93;99545.31;4968056;28;20065;-84
2023/09/12 07:10:25;;;;;;;16.80;8.75;;;;;;;21.32;67.01;99542.41;4940676;28;20112;-84
2023/09/12 07:12:53;;;;;;;15.23;8.10;;;;;;;21.39;66.57;99545.94;4934866;28;20051;-84
2023/09/12 07:15:20;;;;;;;17.98;8.45;;;;;;;21.38;66.54;99538.88;4946328;28;20049;-83
2023/09/12 07:17:47;;;;;;;13.85;7.38;;;;;;;21.39;66.64;99530.56;4932743;28;20069;-84
2023/09/12 07:20:15;;;;;;;16.52;8.45;;;;;;;21.42;66.46;99535.56;4939565;28;20485;-83
2023/09/12 07:22:45;;;;;;;12.50;7.60;;;;;;;21.43;66.43;99526.41;4927163;28;24506;-83
2023/09/12 07:25:13;;;;;;;13.80;8.35;;;;;;;21.45;66.72;99524.31;4929590;28;20067;-83
2023/09/12 07:27:40;;;;;;;13.30;7.47;;;;;;;21.49;67.05;99532.81;4924681;28;20049;-82
2023/09/12 07:30:07;;;;;;;11.30;6.82;;;;;;;21.51;66.88;99524.50;4942696;28;20108;-83
2023/09/12 07:32:34;;;;;;;13.00;7.50;;;;;;;21.55;67.17;99525.72;4939569;28;20047;-84
2023/09/12 07:35:02;;;;;;;18.73;8.18;;;;;;;21.54;67.07;99518.66;4946509;28;20055;-84
2023/09/12 07:37:29;;;;;;;15.88;7.60;;;;;;;21.57;67.21;99521.75;4947736;28;20121;-84
2023/09/12 07:39:55;;;;;;;13.07;7.45;;;;;;;21.58;67.13;99517.19;4926307;28;20078;-84
2023/09/12 07:42:23;;;;;;;20.63;8.30;;;;;;;21.63;66.99;99520.09;4939583;28;20039;-84
2023/09/12 07:44:50;;;;;;;18.38;8.35;;;;;;;21.68;67.13;99531.06;4958550;28;20498;-84
2023/09/12 07:47:18;;;;;;;15.50;7.82;;;;;;;21.67;67.46;99534.81;4955390;28;20103;-83
2023/09/12 07:49:45;;;;;;;16.10;8.35;;;;;;;21.69;67.63;99535.44;4942917;28;20499;-84
2023/09/12 07:52:12;;;;;;;12.45;7.82;;;;;;;21.74;67.19;99537.50;4944309;28;20122;-84
2023/09/12 07:54:39;;;;;;;15.27;7.53;;;;;;;21.74;66.76;99541.00;4917065;28;20408;-82
2023/09/12 07:57:05;;;;;;;14.88;7.20;;;;;;;21.76;66.78;99541.63;4955240;28;20046;-83
2023/09/12 07:59:33;;;;;;;13.38;7.32;;;;;;;21.81;67.16;99544.50;4941905;28;20389;-83
2023/09/12 08:02:00;;;;;;;17.92;7.97;;;;;;;21.83;67.44;99542.44;4948114;28;20109;-83
2023/09/12 08:04:27;;;;;;;17.10;8.48;;;;;;;21.85;67.15;99553.88;4923048;28;20197;-85
2023/09/12 08:06:53;;;;;;;13.32;7.32;;;;;;;21.88;67.34;99552.59;4953613;28;20047;-84
2023/09/12 08:09:57;;;;;;;14.00;7.90;;;;;;;21.82;66.80;99558.84;4969135;28;20057;-84
2023/09/12 08:12:26;;;;;;;14.63;7.57;;;;;;;21.92;66.89;99559.22;4937946;28;20057;-84
2023/09/12 08:14:56;;;;;;;14.40;7.57;;;;;;;21.93;67.35;99558.19;4936447;28;20054;-84
2023/09/12 08:17:23;;;;;;;12.85;6.95;;;;;;;21.98;67.65;99552.09;4925060;28;21138;-83
2023/09/12 08:19:50;;;;;;;17.45;7.28;;;;;;;21.97;68.04;99551.28;4946414;28;20046;-82
2023/09/12 08:22:17;;;;;;;14.32;7.47;;;;;;;22.02;68.17;99546.06;4947768;28;20122;-82
2023/09/12 08:24:44;;;;;;;11.85;7.65;;;;;;;22.04;68.39;99545.84;4966990;28;20480;-83
2023/09/12 08:27:11;;;;;;;16.10;7.22;;;;;;;22.09;68.24;99552.25;4942236;28;20042;-84
2023/09/12 08:29:38;;;;;;;15.63;6.57;;;;;;;22.08;68.46;99553.31;4947039;28;21515;-83
2023/09/12 08:32:05;;;;;;;13.95;6.97;;;;;;;22.10;68.34;99544.97;4968609;28;20384;-84
2023/09/12 08:34:32;;;;;;;17.33;8.52;;;;;;;22.12;67.95;99551.00;4968705;28;20043;-84
2023/09/12 08:36:59;;;;;;;13.30;7.10;;;;;;;22.14;67.87;99556.19;4966616;28;20055;-83
2023/09/12 08:39:27;;;;;;;18.15;7.10;;;;;;;22.15;67.84;99555.97;4928216;28;20122;-83
2023/09/12 08:41:54;;;;;;;15.13;7.05;;;;;;;22.15;67.63;99547.84;4963790;28;20411;-83
2023/09/12 08:44:21;;;;;;;16.73;7.05;;;;;;;22.16;67.85;99548.66;4931004;28;20092;-83
2023/09/12 08:46:48;;;;;;;17.27;6.85;;;;;;;22.16;67.57;99557.63;4914787;28;20511;-82
2023/09/12 08:49:16;;;;;;;15.38;7.50;;;;;;;22.18;68.21;99557.41;4968114;28;20106;-82
2023/09/12 08:51:43;;;;;;;16.85;7.28;;;;;;;22.23;68.19;99549.47;4927964;28;20406;-83
2023/09/12 08:54:10;;;;;;;17.88;6.97;;;;;;;22.27;68.49;99548.84;4936879;28;20040;-83
2023/09/12 08:56:40;;;;;;;15.00;7.65;;;;;;;22.28;68.16;99546.94;4956613;28;20122;-83
2023/09/12 08:59:07;;;;;;;18.75;7.28;;;;;;;22.32;68.18;99554.41;4931778;28;20061;-83
2023/09/12 09:01:35;;;;;;;17.45;7.35;;;;;;;22.36;68.31;99546.69;4932826;28;20074;-83
2023/09/12 09:04:03;;;;;;;14.90;7.28;;;;;;;22.41;67.92;99543.31;4958126;28;20061;-83
2023/09/12 09:06:32;;;;;;;19.15;6.95;;;;;;;22.41;67.58;99536.03;4963538;28;20050;-83
2023/09/12 09:09:00;;;;;;;20.48;7.13;;;;;;;22.46;67.63;99538.91;4930559;28;20047;-83
2023/09/12 09:11:27;;;;;;;14.20;7.15;;;;;;;22.48;67.26;99541.41;4945383;28;20097;-85
2023/09/12 09:13:55;;;;;;;10.90;6.53;;;;;;;22.51;67.37;99539.06;4967495;28;20043;-84
2023/09/12 09:16:22;;;;;;;8.40;6.75;;;;;;;22.55;67.77;99539.47;4931521;28;20066;-84
2023/09/12 09:19:00;;;;;;;12.80;7.82;;;;;;;22.55;67.44;99536.75;4944213;28;20511;-84
2023/09/12 09:21:30;;;;;;;19.38;7.97;;;;;;;22.64;67.62;99529.19;4940740;28;20542;-84
2023/09/12 09:24:03;;;;;;;12.43;7.20;;;;;;;22.63;67.09;99519.41;4936425;28;20050;-84
2023/09/12 09:26:40;;;;;;;12.30;7.68;;;;;;;22.63;67.34;99525.66;4944333;28;20050;-84
2023/09/12 09:29:14;;;;;;;12.70;6.25;;;;;;;22.67;67.38;99524.16;4969001;28;20051;-84
2023/09/12 09:31:42;;;;;;;12.00;7.40;;;;;;;22.71;67.44;99519.94;4919092;28;20051;-83
2023/09/12 09:34:17;;;;;;;12.57;7.68;;;;;;;22.71;67.33;99521.84;4921444;28;20065;-84
2023/09/12 09:36:46;;;;;;;11.05;6.53;;;;;;;22.78;67.67;99516.38;4924111;28;20043;-85
2023/09/12 09:39:14;;;;;;;13.82;7.55;;;;;;;22.81;67.74;99522.16;4948979;28;20057;-84
2023/09/12 09:41:41;;;;;;;13.35;8.25;;;;;;;22.84;67.84;99519.00;4929837;28;20110;-84
2023/09/12 09:44:08;;;;;;;12.75;7.82;;;;;;;22.88;67.96;99519.38;4944560;28;20061;-84
2023/09/12 09:46:37;;;;;;;13.43;7.82;;;;;;;22.88;68.08;99514.78;4932852;28;20073;-84
2023/09/12 09:49:06;;;;;;;13.95;8.30;;;;;;;22.93;67.95;99514.13;4923122;28;20087;-84
2023/09/12 09:51:33;;;;;;;14.38;8.98;;;;;;;22.98;68.13;99513.50;4966583;28;20076;-84
2023/09/12 09:54:07;;;;;;;14.07;8.30;;;;;;;23.01;68.26;99513.03;4948461;28;20122;-86
2023/09/12 09:56:48;;;;;;;14.18;8.30;;;;;;;23.01;68.21;99519.28;4923133;28;20053;-85
2023/09/12 09:59:19;;;;;;;11.63;8.02;;;;;;;23.05;67.75;99520.50;4950654;28;20055;-85
2023/09/12 10:01:46;;;;;;;14.88;7.93;;;;;;;23.09;67.99;99515.44;4939927;28;20241;-85
2023/09/12 10:04:13;;;;;;;15.00;8.80;;;;;;;23.14;68.13;99504.75;4928491;28;20054;-85
2023/09/12 10:06:43;;;;;;;13.82;9.43;;;;;;;23.17;69.09;99502.41;4956218;28;20051;-85
2023/09/12 10:09:12;;;;;;;18.48;8.52;;;;;;;23.22;67.91;99495.50;4928010;28;20076;-85
2023/09/12 10:11:40;;;;;;;14.70;7.97;;;;;;;23.26;67.37;99499.44;4913200;28;20053;-85
2023/09/12 10:14:07;;;;;;;9.32;7.25;;;;;;;23.30;67.77;99498.72;4942315;28;20046;-85
2023/09/12 10:16:36;;;;;;;19.13;8.23;;;;;;;23.32;67.82;99496.63;4943463;28;20049;-84
2023/09/12 10:19:17;;;;;;;13.60;8.35;;;;;;;23.30;68.23;99489.78;4930419;28;20046;-84
2023/09/12 10:21:44;;;;;;;14.05;8.13;;;;;;;23.40;67.78;99490.06;4952079;28;20047;-85
2023/09/12 10:24:11;;;;;;;13.65;8.15;;;;;;;23.42;67.49;99489.84;4950950;28;20045;-85
2023/09/12 10:26:43;;;;;;;20.30;8.45;;;;;;;23.44;67.46;99491.28;4941990;28;20051;-85
2023/09/12 10:29:13;;;;;;;15.18;8.38;;;;;;;23.46;67.61;99494.59;4942285;28;20051;-85
2023/09/12 10:31:39;;;;;;;18.40;9.07;;;;;;;23.51;67.84;99481.19;4926123;28;20054;-85
2023/09/12 10:34:09;;;;;;;13.38;8.70;;;;;;;23.56;67.75;99484.03;4938637;28;20138;-84
2023/09/12 10:36:40;;;;;;;13.02;9.10;;;;;;;23.60;67.74;99470.84;4943570;28;20578;-83
2023/09/12 10:39:09;;;;;;;17.00;9.15;;;;;;;23.65;67.63;99475.56;4952770;28;20054;-84
2023/09/12 10:41:39;;;;;;;14.52;9.40;;;;;;;23.67;66.98;99474.28;4944421;28;20414;-84
2023/09/12 10:44:11;;;;;;;14.35;8.70;;;;;;;23.74;67.20;99474.22;4963762;28;20090;-84
2023/09/12 10:46:39;;;;;;;16.30;9.32;;;;;;;23.79;67.02;99474.38;4957011;28;20071;-85
2023/09/12 10:49:08;;;;;;;19.20;9.25;;;;;;;23.83;67.12;99470.94;4928132;28;20054;-86
2023/09/12 10:51:39;;;;;;;18.50;9.85;;;;;;;23.88;66.59;99472.13;4946068;28;20066;-86
2023/09/12 10:54:08;;;;;;;18.38;9.82;;;;;;;23.89;66.52;99463.78;4928411;28;21517;-86
2023/09/12 10:56:35;;;;;;;14.98;8.80;;;;;;;23.94;66.17;99469.34;4941402;28;20043;-86
2023/09/12 10:59:04;;;;;;;12.65;8.93;;;;;;;24.00;66.00;99459.44;4913337;28;20059;-85
2023/09/12 11:01:32;;;;;;;16.67;8.52;;;;;;;24.01;65.60;99459.19;4936771;28;20106;-86
2023/09/12 11:04:27;;;;;;;13.50;8.45;;;;;;;24.02;65.04;99462.75;4944871;28;20491;-85
2023/09/12 11:06:55;;;;;;;12.48;8.10;;;;;;;24.07;64.80;99465.59;4941439;28;20055;-86
2023/09/12 11:09:23;;;;;;;11.43;8.40;;;;;;;24.13;64.37;99461.94;4924446;28;20042;-85
2023/09/12 11:12:02;;;;;;;18.05;8.77;;;;;;;24.13;64.03;99459.22;4924811;28;20050;-84
2023/09/12 11:14:29;;;;;;;12.90;8.30;;;;;;;24.19;64.80;99457.44;4952623;28;20069;-85
2023/09/12 11:17:08;;;;;;;9.80;8.57;;;;;;;24.17;65.02;99456.84;4966092;28;20062;-85
2023/09/12 11:19:44;;;;;;;14.85;9.07;;;;;;;24.21;64.78;99460.75;4944149;28;20105;-85
2023/09/12 11:22:21;;;;;;;10.25;7.60;;;;;;;24.21;64.78;99456.16;4953584;28;20047;-85
2023/09/12 11:24:48;;;;;;;11.15;8.43;;;;;;;24.27;64.65;99448.97;4940875;28;20078;-85
2023/09/12 11:27:16;;;;;;;16.85;8.18;;;;;;;24.33;64.96;99450.75;4921619;28;20491;-85
2023/09/12 11:29:43;;;;;;;17.48;8.90;;;;;;;24.40;63.95;99445.19;4926921;28;20039;-84